< < Back
Terminal Aerodrome Forecast


Current Version              Previous Versions:   1  2  3  4  5  6  7  8  9  

Terminal Aerodrome Forecast

931
FTAK31 PAJN 251520 AAA
TAFAHN
TAF AMD
PAHN 251520Z 2515/2612 VRB04KT P6SM OVC009
     FM251700 08007KT P6SM BKN015 OVC030
     FM252100 12008KT P6SM BKN025 OVC050
     FM260000 12007KT P6SM SCT025 OVC050
     FM260800 12007KT P6SM SCT050
      AMD LTD TO CLD VIS AND WIND=

Latest METAR

581
SAUS70 KWBC 252000 RRA
MTRAHN
METAR KAHN 251951Z VRB05KT 10SM FEW065 33/18 A3004 RMK AO2 SLP163
T03330178


USA.gov is the U.S. government's official web portal to all federal, state and local government web resources and services.